createdAt,value
2022-12-08T00:03:46.995Z,101442.16
2022-12-08T00:09:07.643Z,101436.41
2022-12-08T00:14:09.141Z,101424.63
2022-12-08T00:19:10.763Z,101424.06
2022-12-08T00:24:12.539Z,101414.81
2022-12-08T00:29:17.379Z,101414.66
2022-12-08T00:34:19.977Z,101401.00
2022-12-08T00:39:21.567Z,101406.97
2022-12-08T00:44:23.312Z,101410.06
2022-12-08T00:49:24.991Z,101416.25
2022-12-08T00:54:26.659Z,101406.50
2022-12-08T00:59:28.405Z,101403.63
2022-12-08T01:04:30.320Z,101407.78
2022-12-08T01:09:32.680Z,101400.94
2022-12-08T01:14:34.305Z,101403.34
2022-12-08T01:19:37.059Z,101403.59
2022-12-08T01:24:38.796Z,101412.03
2022-12-08T01:29:40.458Z,101398.22
2022-12-08T01:34:42.194Z,101390.91
2022-12-08T01:39:44.180Z,101402.34
2022-12-08T01:44:45.853Z,101406.28
2022-12-08T01:49:48.020Z,101402.31
2022-12-08T01:54:54.138Z,101404.69
2022-12-08T02:00:07.705Z,101388.75
2022-12-08T02:05:11.598Z,101389.75
2022-12-08T02:10:18.207Z,101382.31
2022-12-08T02:15:23.611Z,101381.34
2022-12-08T02:21:09.071Z,101368.63
2022-12-08T02:26:20.118Z,101366.19
2022-12-08T02:31:48.134Z,101357.66
2022-12-08T02:37:06.710Z,101352.22
2022-12-08T02:42:14.480Z,101347.13
2022-12-08T02:47:18.900Z,101333.22
2022-12-08T02:52:20.444Z,101330.28
2022-12-08T02:57:41.260Z,101325.31
2022-12-08T03:03:01.682Z,101320.09
2022-12-08T03:08:13.287Z,101311.91
2022-12-08T03:13:20.466Z,101310.31
2022-12-08T03:18:31.693Z,101308.59
2022-12-08T03:23:36.983Z,101299.38
2022-12-08T03:28:39.197Z,101301.44
2022-12-08T03:33:45.841Z,101291.97
2022-12-08T03:38:52.881Z,101286.66
2022-12-08T03:43:59.369Z,101285.09
2022-12-08T03:49:01.211Z,101271.22
2022-12-08T03:54:02.809Z,101273.75
2022-12-08T03:59:05.733Z,101265.91
2022-12-08T04:04:07.433Z,101266.91
2022-12-08T04:09:09.137Z,101260.84
2022-12-08T04:14:10.722Z,101254.88
2022-12-08T04:19:12.306Z,101253.88
2022-12-08T04:24:13.875Z,101240.69
2022-12-08T04:29:17.796Z,101238.25
2022-12-08T04:34:19.549Z,101234.81
2022-12-08T04:39:21.079Z,101240.88
2022-12-08T04:44:22.711Z,101238.63
2022-12-08T04:49:24.339Z,101237.94
2022-12-08T04:54:26.968Z,101236.16
2022-12-08T04:59:28.550Z,101239.41
2022-12-08T05:04:30.161Z,101237.06
2022-12-08T05:09:31.981Z,101233.34
2022-12-08T05:14:33.498Z,101230.69
2022-12-08T05:19:35.099Z,101244.19
2022-12-08T05:24:36.755Z,101246.72
2022-12-08T05:29:38.379Z,101245.97
2022-12-08T05:34:40.196Z,101250.88
2022-12-08T05:39:41.757Z,101249.50
2022-12-08T05:44:43.451Z,101239.31
2022-12-08T05:49:45.159Z,101243.03
2022-12-08T05:54:47.226Z,101238.25
2022-12-08T05:59:48.846Z,101240.88
2022-12-08T06:04:50.359Z,101237.66
2022-12-08T06:09:51.917Z,101233.41
2022-12-08T06:14:53.445Z,101229.25
2022-12-08T06:19:54.958Z,101230.31
2022-12-08T06:24:56.499Z,101228.56
2022-12-08T06:29:58.301Z,101241.25
2022-12-08T06:34:59.866Z,101232.84
2022-12-08T06:40:02.095Z,101239.50
2022-12-08T06:45:04.321Z,101244.69
2022-12-08T06:50:07.082Z,101242.13
2022-12-08T06:55:09.439Z,101242.25
2022-12-08T07:00:11.790Z,101249.28
2022-12-08T07:05:17.592Z,101255.22
2022-12-08T07:10:21.644Z,101258.84
2022-12-08T07:15:27.279Z,101250.66
2022-12-08T07:20:57.156Z,101255.06
2022-12-08T07:26:06.087Z,101267.06
2022-12-08T07:31:15.914Z,101261.16
2022-12-08T07:36:17.889Z,101254.78
2022-12-08T07:41:23.616Z,101244.00
2022-12-08T07:46:26.514Z,101241.16
2022-12-08T07:51:28.311Z,101241.75
2022-12-08T07:56:29.895Z,101251.13
2022-12-08T08:01:33.950Z,101248.09
2022-12-08T08:06:37.822Z,101260.81
2022-12-08T08:11:39.384Z,101265.03
2022-12-08T08:16:46.888Z,101268.56
2022-12-08T08:21:48.642Z,101262.69
2022-12-08T08:26:50.613Z,101264.56
2022-12-08T08:31:52.124Z,101256.25
2022-12-08T08:36:53.872Z,101263.88
2022-12-08T08:41:55.681Z,101264.06
2022-12-08T08:47:02.524Z,101266.44
2022-12-08T08:52:04.988Z,101279.78
2022-12-08T08:57:06.511Z,101277.03
2022-12-08T09:02:15.939Z,101288.97
2022-12-08T09:07:17.536Z,101294.28
2022-12-08T09:12:19.272Z,101299.44
2022-12-08T09:17:20.775Z,101300.75
2022-12-08T09:22:23.436Z,101303.06
2022-12-08T09:27:25.080Z,101305.06
2022-12-08T09:32:26.603Z,101303.28
2022-12-08T09:37:30.739Z,101294.19
2022-12-08T09:42:38.343Z,101298.81
2022-12-08T09:48:04.321Z,101304.28
2022-12-08T09:53:35.136Z,101308.97
2022-12-08T09:58:49.023Z,101306.63
2022-12-08T10:03:52.211Z,101290.97
2022-12-08T10:09:22.655Z,101289.50
2022-12-08T10:14:47.556Z,101283.16
2022-12-08T10:19:55.560Z,101273.75
2022-12-08T10:25:20.383Z,101274.06
2022-12-08T10:30:22.717Z,101264.94
2022-12-08T10:35:25.433Z,101259.16
2022-12-08T10:40:35.445Z,101248.56
2022-12-08T10:45:44.154Z,101232.59
2022-12-08T10:50:47.912Z,101229.41
2022-12-08T10:55:53.585Z,101220.47
2022-12-08T11:01:03.181Z,101214.22
2022-12-08T11:06:19.033Z,101208.06
2022-12-08T11:11:27.487Z,101198.56
2022-12-08T11:16:30.875Z,101206.44
2022-12-08T11:21:37.534Z,101197.78
2022-12-08T11:26:39.272Z,101190.75
2022-12-08T11:31:50.214Z,101181.16
2022-12-08T11:36:54.324Z,101162.97
2022-12-08T11:41:57.522Z,101160.31
2022-12-08T11:47:05.233Z,101155.91
2022-12-08T11:52:42.181Z,101151.38
2022-12-08T11:57:45.615Z,101139.06
2022-12-08T12:02:56.545Z,101134.41
2022-12-08T12:08:22.186Z,101130.81
2022-12-08T12:13:52.453Z,101115.78
2022-12-08T12:19:10.907Z,101092.72
2022-12-08T12:24:35.804Z,101083.44
2022-12-08T12:29:44.642Z,101079.94
2022-12-08T12:34:54.759Z,101069.06
2022-12-08T12:40:02.719Z,101065.28
2022-12-08T12:45:17.656Z,101054.84
2022-12-08T12:50:34.799Z,101042.66
2022-12-08T12:55:45.566Z,101038.78
2022-12-08T13:00:47.265Z,101032.72
2022-12-08T13:05:53.127Z,101026.25
2022-12-08T13:11:02.445Z,101029.72
2022-12-08T13:16:19.201Z,101026.75
2022-12-08T13:21:23.619Z,101015.16
2022-12-08T13:26:27.366Z,101012.97
2022-12-08T13:31:50.936Z,100999.03
2022-12-08T13:37:11.663Z,100991.84
2022-12-08T13:42:13.566Z,100981.81
2022-12-08T13:47:35.956Z,100986.75
2022-12-08T13:58:20.525Z,100977.22
2022-12-08T14:03:22.562Z,100973.56
2022-12-08T14:08:59.032Z,100980.22
2022-12-08T14:13:53.787Z,100982.59
2022-12-08T14:18:55.339Z,100982.72
2022-12-08T14:24:01.805Z,100987.69
2022-12-08T14:29:03.470Z,100986.88
2022-12-08T14:34:05.502Z,100986.31
2022-12-08T14:39:08.921Z,100992.19
2022-12-08T14:44:39.167Z,100999.22
2022-12-08T14:49:40.989Z,100999.03
2022-12-08T14:54:43.555Z,101002.75
2022-12-08T14:59:46.960Z,101007.31
2022-12-08T15:04:54.959Z,101006.72
2022-12-08T15:10:17.050Z,101012.41
2022-12-08T15:15:18.819Z,101013.50
2022-12-08T15:20:34.817Z,101021.78
2022-12-08T15:25:39.578Z,101014.66
2022-12-08T15:30:41.264Z,101015.66
2022-12-08T15:35:43.643Z,101017.97
2022-12-08T15:40:45.419Z,101029.91
2022-12-08T15:45:57.909Z,101029.81
2022-12-08T15:51:00.573Z,101045.34
2022-12-08T16:01:28.932Z,101048.00
2022-12-08T16:07:12.799Z,101052.19
2022-12-08T16:12:10.920Z,101050.31
2022-12-08T16:17:17.663Z,101050.84
2022-12-08T16:22:52.893Z,101053.66
2022-12-08T16:28:01.235Z,101063.03
2022-12-08T16:33:05.400Z,101068.22
2022-12-08T16:38:07.636Z,101076.03
2022-12-08T16:43:09.256Z,101078.28
2022-12-08T16:48:14.749Z,101092.16
2022-12-08T16:53:16.462Z,101085.91
2022-12-08T16:58:19.135Z,101084.84
2022-12-08T17:03:21.175Z,101084.63
2022-12-08T17:08:22.793Z,101086.97
2022-12-08T17:13:24.462Z,101082.88
2022-12-08T17:18:26.125Z,101085.09
2022-12-08T17:23:27.797Z,101073.25
2022-12-08T17:28:58.257Z,101067.22
2022-12-08T17:33:59.229Z,101063.22
2022-12-08T17:39:01.270Z,101058.03
2022-12-08T17:44:02.918Z,101059.31
2022-12-08T17:49:09.529Z,101057.84
2022-12-08T17:54:12.101Z,101060.19
2022-12-08T17:59:14.482Z,101060.78
2022-12-08T18:04:16.093Z,101060.00
2022-12-08T18:09:18.162Z,101064.47
2022-12-08T18:14:20.684Z,101055.09
2022-12-08T18:19:22.363Z,101062.84
2022-12-08T18:24:24.207Z,101059.41
2022-12-08T18:29:25.928Z,101061.06
2022-12-08T18:34:27.611Z,101065.66
2022-12-08T18:39:31.714Z,101066.03
2022-12-08T18:44:33.296Z,101058.00
2022-12-08T18:49:34.858Z,101065.84
2022-12-08T18:55:05.036Z,101072.78
2022-12-08T18:59:59.741Z,101072.69
2022-12-08T19:05:01.345Z,101071.31
2022-12-08T19:10:04.210Z,101068.00
2022-12-08T19:15:06.625Z,101068.19
2022-12-08T19:20:09.088Z,101072.78
2022-12-08T19:25:10.875Z,101070.94
2022-12-08T19:30:13.112Z,101061.75
2022-12-08T19:35:14.755Z,101059.41
2022-12-08T19:40:35.178Z,101056.00
2022-12-08T19:45:37.291Z,101054.53
2022-12-08T19:50:40.445Z,101049.38
2022-12-08T19:55:43.403Z,101048.56
2022-12-08T20:00:46.198Z,101047.97
2022-12-08T20:05:49.661Z,101053.16
2022-12-08T20:10:55.976Z,101054.91
2022-12-08T20:15:58.170Z,101050.81
2022-12-08T20:20:59.763Z,101060.31
2022-12-08T20:26:05.590Z,101067.72
2022-12-08T20:31:07.195Z,101060.56
2022-12-08T20:36:16.165Z,101063.03
2022-12-08T20:41:18.732Z,101058.41
2022-12-08T20:46:21.235Z,101062.53
2022-12-08T20:51:28.439Z,101062.94
2022-12-08T20:56:33.542Z,101057.94
2022-12-08T21:01:35.381Z,101061.84
2022-12-08T21:06:37.021Z,101058.72
2022-12-08T21:11:38.845Z,101052.00
2022-12-08T21:16:40.487Z,101052.19
2022-12-08T21:21:42.506Z,101061.38
2022-12-08T21:26:44.810Z,101058.34
2022-12-08T21:31:46.656Z,101058.53
2022-12-08T21:36:48.446Z,101063.13
2022-12-08T21:42:08.611Z,101061.75
2022-12-08T21:47:10.447Z,101055.41
2022-12-08T21:52:12.317Z,101054.75
2022-12-08T21:57:14.079Z,101050.81
2022-12-08T22:02:20.966Z,101041.66
2022-12-08T22:07:24.496Z,101041.44
2022-12-08T22:12:26.187Z,101043.38
2022-12-08T22:30:49.949Z,101047.66
2022-12-08T22:35:58.709Z,101042.19
2022-12-08T22:41:04.970Z,101044.75
2022-12-08T22:46:21.192Z,101039.69
2022-12-08T22:51:23.097Z,101031.34
2022-12-08T22:56:24.716Z,101033.72
2022-12-08T23:01:29.577Z,101030.19
2022-12-08T23:06:32.246Z,101035.16
2022-12-08T23:11:33.860Z,101037.91
2022-12-08T23:16:35.501Z,101050.22
2022-12-08T23:21:37.731Z,101057.25
2022-12-08T23:26:39.506Z,101062.72
2022-12-08T23:31:43.573Z,101066.84
2022-12-08T23:36:45.138Z,101061.94
2022-12-08T23:41:46.899Z,101066.72
2022-12-08T23:46:48.685Z,101075.25
2022-12-08T23:51:51.182Z,101070.63
2022-12-08T23:56:53.073Z,101062.16
